createdAt,value
2019-02-09T00:00:28.517Z,9.84
2019-02-09T00:01:27.057Z,9.99
2019-02-09T00:02:25.590Z,9.91
2019-02-09T00:03:24.332Z,9.97
2019-02-09T00:04:22.929Z,9.93
2019-02-09T00:05:21.492Z,9.96
2019-02-09T00:06:20.125Z,9.99
2019-02-09T00:07:18.934Z,9.97
2019-02-09T00:08:17.586Z,10.08
2019-02-09T00:09:17.117Z,10.08
2019-02-09T00:10:15.698Z,10.07
2019-02-09T00:11:14.267Z,10.11
2019-02-09T00:12:12.974Z,10.18
2019-02-09T00:13:11.504Z,10.15
2019-02-09T00:14:10.153Z,10.18
2019-02-09T00:15:08.804Z,10.17
2019-02-09T00:16:07.382Z,10.22
2019-02-09T00:17:06.062Z,10.17
2019-02-09T00:18:04.586Z,10.22
2019-02-09T00:19:03.757Z,10.32
2019-02-09T00:20:01.667Z,10.25
2019-02-09T00:21:00.270Z,10.27
2019-02-09T00:21:59.031Z,10.33
2019-02-09T00:22:57.578Z,10.3
2019-02-09T00:23:56.218Z,10.27
2019-02-09T00:24:54.854Z,10.33
2019-02-09T00:25:53.454Z,10.36
2019-02-09T00:26:52.170Z,10.32
2019-02-09T00:27:50.793Z,10.34
2019-02-09T00:28:49.348Z,10.4
2019-02-09T00:29:47.892Z,10.36
2019-02-09T00:30:46.473Z,10.36
2019-02-09T00:31:45.039Z,10.34
2019-02-09T00:32:43.575Z,10.27
2019-02-09T00:33:42.122Z,10.38
2019-02-09T00:34:40.754Z,10.33
2019-02-09T00:35:39.303Z,10.33
2019-02-09T00:36:37.892Z,10.36
2019-02-09T00:37:37.129Z,10.32
2019-02-09T00:38:35.665Z,10.36
2019-02-09T00:39:34.230Z,10.42
2019-02-09T00:40:32.762Z,10.34
2019-02-09T00:41:31.285Z,10.32
2019-02-09T00:42:29.849Z,10.34
2019-02-09T00:43:28.467Z,10.32
2019-02-09T00:44:27.136Z,10.36
2019-02-09T00:45:25.682Z,10.44
2019-02-09T00:46:24.227Z,10.55
2019-02-09T00:47:23.008Z,10.52
2019-02-09T00:48:21.785Z,10.51
2019-02-09T00:49:20.279Z,10.53
2019-02-09T00:50:18.867Z,10.48
2019-02-09T00:51:17.403Z,10.56
2019-02-09T00:52:15.957Z,10.51
2019-02-09T00:53:14.498Z,10.63
2019-02-09T00:54:13.021Z,10.68
2019-02-09T00:55:11.769Z,10.67
2019-02-09T00:56:10.727Z,10.59
2019-02-09T00:57:09.288Z,10.64
2019-02-09T00:58:07.842Z,10.51
2019-02-09T00:59:06.468Z,10.53
2019-02-09T01:00:05.082Z,10.48
2019-02-09T01:01:03.660Z,10.53
2019-02-09T01:02:02.402Z,10.61
2019-02-09T01:03:01.059Z,10.51
2019-02-09T01:03:59.608Z,10.52
2019-02-09T01:04:58.692Z,10.48
2019-02-09T01:05:57.232Z,10.59
2019-02-09T01:06:55.785Z,10.55
2019-02-09T01:07:54.493Z,10.63
2019-02-09T01:08:53.122Z,10.63
2019-02-09T01:09:51.665Z,10.56
2019-02-09T01:10:50.230Z,10.63
2019-02-09T01:11:48.848Z,10.56
2019-02-09T01:12:47.398Z,10.52
2019-02-09T01:13:46.071Z,10.51
2019-02-09T01:14:44.717Z,10.6
2019-02-09T01:15:43.249Z,10.64
2019-02-09T01:16:41.804Z,10.53
2019-02-09T01:17:40.320Z,10.47
2019-02-09T01:18:38.886Z,10.6
2019-02-09T01:19:37.414Z,10.68
2019-02-09T01:20:35.991Z,10.61
2019-02-09T01:21:34.642Z,10.71
2019-02-09T01:22:33.186Z,10.76
2019-02-09T01:23:31.751Z,10.78
2019-02-09T01:24:30.408Z,10.78
2019-02-09T01:25:29.023Z,10.73
2019-02-09T01:26:27.585Z,10.92
2019-02-09T01:27:26.246Z,10.91
2019-02-09T01:28:24.889Z,10.88
2019-02-09T01:29:23.438Z,10.94
2019-02-09T01:30:22.036Z,10.94
2019-02-09T01:31:20.582Z,10.89
2019-02-09T01:32:19.145Z,10.94
2019-02-09T01:33:17.675Z,11
2019-02-09T01:34:16.314Z,11.03
2019-02-09T01:35:14.896Z,11.06
2019-02-09T01:36:13.433Z,11.06
2019-02-09T01:37:11.992Z,11.03
2019-02-09T01:38:10.881Z,11
2019-02-09T01:39:09.392Z,11.1
2019-02-09T01:40:07.929Z,11.06
2019-02-09T01:41:06.616Z,11.04
2019-02-09T01:42:05.185Z,11.03
2019-02-09T01:43:03.763Z,11.1
2019-02-09T01:44:02.313Z,11.18
2019-02-09T01:45:00.925Z,11.18
2019-02-09T01:45:59.573Z,11.15
2019-02-09T01:46:58.255Z,11.18
2019-02-09T01:47:56.930Z,11.21
2019-02-09T01:48:55.501Z,11.25
2019-02-09T01:49:54.134Z,11.21
2019-02-09T01:50:52.776Z,11.19
2019-02-09T01:51:51.312Z,11.29
2019-02-09T01:52:49.876Z,11.32
2019-02-09T01:53:48.425Z,11.28
2019-02-09T01:54:47.013Z,11.25
2019-02-09T01:55:45.581Z,11.18
2019-02-09T01:56:44.943Z,11.18
2019-02-09T01:57:43.509Z,11.21
2019-02-09T01:58:42.010Z,11.18
2019-02-09T01:59:40.552Z,11.09
2019-02-09T02:00:39.193Z,11.15
2019-02-09T02:01:38.047Z,11.04
2019-02-09T02:02:36.819Z,11.21
2019-02-09T02:03:35.362Z,11.11
2019-02-09T02:04:33.894Z,11.06
2019-02-09T02:05:32.574Z,11.09
2019-02-09T02:06:31.234Z,11.09
2019-02-09T02:07:29.805Z,11.07
2019-02-09T02:08:28.451Z,11.09
2019-02-09T02:09:27.145Z,11.11
2019-02-09T02:10:25.672Z,11.11
2019-02-09T02:11:24.482Z,11.1
2019-02-09T02:12:23.138Z,11.15
2019-02-09T02:13:21.664Z,11.18
2019-02-09T02:14:20.218Z,11.15
2019-02-09T02:15:18.796Z,11.18
2019-02-09T02:16:17.360Z,11.1
2019-02-09T02:17:15.911Z,11.06
2019-02-09T02:18:14.541Z,11.09
2019-02-09T02:19:13.082Z,11.1
2019-02-09T02:20:11.626Z,11.22
2019-02-09T02:21:10.199Z,11.22
2019-02-09T02:22:08.790Z,11.19
2019-02-09T02:23:07.331Z,11.17
2019-02-09T02:24:05.886Z,11.18
2019-02-09T02:25:04.662Z,11.14
2019-02-09T02:26:03.308Z,11.22
2019-02-09T02:27:01.864Z,11.14
2019-02-09T02:28:00.442Z,10.99
2019-02-09T02:28:58.999Z,10.99
2019-02-09T02:29:57.554Z,10.92
2019-02-09T02:30:56.093Z,10.99
2019-02-09T02:31:54.628Z,10.81
2019-02-09T02:32:53.191Z,10.88
2019-02-09T02:33:51.742Z,10.94
2019-02-09T02:34:50.380Z,10.81
2019-02-09T02:35:49.052Z,10.88
2019-02-09T02:36:47.676Z,10.84
2019-02-09T02:37:46.280Z,10.86
2019-02-09T02:38:44.858Z,10.91
2019-02-09T02:39:43.417Z,10.82
2019-02-09T02:40:42.011Z,10.76
2019-02-09T02:41:40.610Z,10.56
2019-02-09T02:42:39.185Z,10.67
2019-02-09T02:43:37.735Z,10.76
2019-02-09T02:44:36.300Z,10.78
2019-02-09T02:45:34.944Z,10.79
2019-02-09T02:46:33.493Z,10.76
2019-02-09T02:47:32.111Z,10.78
2019-02-09T02:48:30.810Z,10.81
2019-02-09T02:49:29.371Z,10.74
2019-02-09T02:50:27.945Z,10.73
2019-02-09T02:51:26.528Z,10.81
2019-02-09T02:52:25.096Z,10.76
2019-02-09T02:53:23.660Z,10.74
2019-02-09T02:54:22.363Z,10.61
2019-02-09T02:55:20.941Z,10.53
2019-02-09T02:56:19.505Z,10.53
2019-02-09T02:57:18.058Z,10.51
2019-02-09T02:58:16.706Z,10.53
2019-02-09T02:59:15.440Z,10.45
2019-02-09T03:00:14.233Z,10.55
2019-02-09T03:01:12.998Z,10.42
2019-02-09T03:02:11.566Z,10.42
2019-02-09T03:03:10.126Z,10.45
2019-02-09T03:04:08.756Z,10.42
2019-02-09T03:05:07.284Z,10.38
2019-02-09T03:06:06.550Z,10.47
2019-02-09T03:07:05.223Z,10.52
2019-02-09T03:08:03.764Z,10.33
2019-02-09T03:09:02.503Z,10.41
2019-02-09T03:10:01.080Z,10.42
2019-02-09T03:10:59.632Z,10.38
2019-02-09T03:11:58.239Z,10.42
2019-02-09T03:12:57.213Z,10.4
2019-02-09T03:13:55.778Z,10.4
2019-02-09T03:14:54.348Z,10.48
2019-02-09T03:15:52.898Z,10.36
2019-02-09T03:16:51.457Z,10.38
2019-02-09T03:17:50.091Z,10.33
2019-02-09T03:18:48.671Z,10.34
2019-02-09T03:19:47.305Z,10.34
2019-02-09T03:20:45.864Z,10.36
2019-02-09T03:21:44.594Z,10.36
2019-02-09T03:22:43.251Z,10.3
2019-02-09T03:23:41.804Z,10.32
2019-02-09T03:24:40.360Z,10.33
2019-02-09T03:25:38.903Z,10.34
2019-02-09T03:26:37.446Z,10.17
2019-02-09T03:27:36.028Z,10.17
2019-02-09T03:28:34.569Z,10.05
2019-02-09T03:29:33.139Z,10.11
2019-02-09T03:30:45.683Z,10.07
2019-02-09T03:31:30.342Z,9.97
2019-02-09T03:32:29.015Z,9.91
2019-02-09T03:33:27.566Z,9.9
2019-02-09T03:34:26.850Z,9.99
2019-02-09T03:35:25.409Z,9.93
2019-02-09T03:36:23.932Z,9.89
2019-02-09T03:37:22.640Z,9.9
2019-02-09T03:38:21.178Z,9.71
2019-02-09T03:39:19.776Z,9.86
2019-02-09T03:40:18.707Z,9.76
2019-02-09T03:41:17.266Z,9.81
2019-02-09T03:42:15.849Z,9.75
2019-02-09T03:43:14.470Z,9.74
2019-02-09T03:44:13.014Z,9.86
2019-02-09T03:45:11.578Z,9.84
2019-02-09T03:46:10.123Z,9.78
2019-02-09T03:47:08.800Z,9.86
2019-02-09T03:48:07.349Z,9.75
2019-02-09T03:49:05.988Z,9.83
2019-02-09T03:50:04.553Z,10.01
2019-02-09T03:51:03.149Z,9.78
2019-02-09T03:52:01.703Z,9.96
2019-02-09T03:53:00.279Z,9.86
2019-02-09T03:53:58.851Z,9.84
2019-02-09T03:54:57.437Z,9.81
2019-02-09T03:55:55.994Z,9.74
2019-02-09T03:56:54.665Z,9.81
2019-02-09T03:57:53.189Z,9.84
2019-02-09T03:58:51.761Z,9.79
2019-02-09T03:59:50.560Z,9.87
2019-02-09T04:00:55.101Z,9.94
2019-02-09T04:01:47.653Z,10.09
2019-02-09T04:02:46.312Z,9.94
2019-02-09T04:03:44.957Z,9.97
2019-02-09T04:04:43.507Z,9.99
2019-02-09T04:05:42.013Z,10.01
2019-02-09T04:06:40.583Z,10.07
2019-02-09T04:07:39.170Z,10.08
2019-02-09T04:08:37.727Z,10.09
2019-02-09T04:09:36.382Z,10.12
2019-02-09T04:10:35.019Z,10.08
2019-02-09T04:11:33.558Z,10.12
2019-02-09T04:12:32.089Z,10.07
2019-02-09T04:13:30.845Z,10.12
2019-02-09T04:14:29.442Z,10.12
2019-02-09T04:15:28.020Z,10.09
2019-02-09T04:16:26.701Z,10.08
2019-02-09T04:17:25.355Z,10.08
2019-02-09T04:18:23.878Z,10.08
2019-02-09T04:19:22.599Z,10.15
2019-02-09T04:20:21.252Z,10.22
2019-02-09T04:21:19.798Z,10.17
2019-02-09T04:22:18.619Z,10.18
2019-02-09T04:23:17.188Z,10.22
2019-02-09T04:24:15.739Z,10.26
2019-02-09T04:25:14.394Z,10.32
2019-02-09T04:26:12.950Z,10.22
2019-02-09T04:27:11.521Z,10.14
2019-02-09T04:28:10.200Z,10.27
2019-02-09T04:29:09.028Z,10.18
2019-02-09T04:30:07.585Z,10.22
2019-02-09T04:31:06.878Z,10.2
2019-02-09T04:32:04.818Z,10.2
2019-02-09T04:33:03.375Z,10.18
2019-02-09T04:34:01.926Z,10.07
2019-02-09T04:35:00.482Z,10.08
2019-02-09T04:35:59.073Z,10.09
2019-02-09T04:36:58.505Z,10.05
2019-02-09T04:37:57.088Z,10.09
2019-02-09T04:38:55.637Z,10.07
2019-02-09T04:39:54.191Z,10.04
2019-02-09T04:40:52.866Z,10.11
2019-02-09T04:41:51.410Z,10.17
2019-02-09T04:42:50.046Z,10.11
2019-02-09T04:43:48.765Z,10.11
2019-02-09T04:44:47.302Z,10.08
2019-02-09T04:45:45.872Z,10.04
2019-02-09T04:46:44.430Z,10.14
2019-02-09T04:47:43.063Z,10.05
2019-02-09T04:48:41.646Z,10.15
2019-02-09T04:49:40.881Z,10.23
2019-02-09T04:50:39.438Z,10.15
2019-02-09T04:51:38.000Z,10.11
2019-02-09T04:52:36.640Z,10.18
2019-02-09T04:53:35.181Z,10.15
2019-02-09T04:54:33.745Z,10.23
2019-02-09T04:55:32.314Z,10.36
2019-02-09T04:56:30.875Z,10.29
2019-02-09T04:57:29.407Z,10.32
2019-02-09T04:58:27.960Z,10.29
2019-02-09T04:59:26.513Z,10.32
2019-02-09T05:00:25.057Z,10.3
2019-02-09T05:01:23.609Z,10.36
2019-02-09T05:02:22.347Z,10.4
2019-02-09T05:03:21.005Z,10.48
2019-02-09T05:04:19.603Z,10.52
2019-02-09T05:05:18.354Z,10.48
2019-02-09T05:06:16.958Z,10.59
2019-02-09T05:07:15.512Z,10.63
2019-02-09T05:08:14.063Z,10.55
2019-02-09T05:09:12.606Z,10.52
2019-02-09T05:10:11.176Z,10.59
2019-02-09T05:11:09.764Z,10.51
2019-02-09T05:12:08.312Z,10.6
2019-02-09T05:13:07.020Z,10.63
2019-02-09T05:14:05.563Z,10.53
2019-02-09T05:15:04.422Z,10.64
2019-02-09T05:16:03.097Z,10.51
2019-02-09T05:17:01.629Z,10.61
2019-02-09T05:18:00.191Z,10.52
2019-02-09T05:18:58.918Z,10.52
2019-02-09T05:19:57.517Z,10.55
2019-02-09T05:20:56.060Z,10.56
2019-02-09T05:21:54.655Z,10.55
2019-02-09T05:22:53.309Z,10.52
2019-02-09T05:23:51.882Z,10.53
2019-02-09T05:24:50.574Z,10.64
2019-02-09T05:25:49.142Z,10.7
2019-02-09T05:26:47.699Z,10.63
2019-02-09T05:27:46.351Z,10.55
2019-02-09T05:28:44.926Z,10.53
2019-02-09T05:29:43.501Z,10.55
2019-02-09T05:30:42.070Z,10.55
2019-02-09T05:31:40.763Z,10.6
2019-02-09T05:32:39.323Z,10.66
2019-02-09T05:33:37.907Z,10.67
2019-02-09T05:34:36.713Z,10.61
2019-02-09T05:35:35.269Z,10.59
2019-02-09T05:36:33.849Z,10.68
2019-02-09T05:37:32.492Z,10.59
2019-02-09T05:38:31.052Z,10.6
2019-02-09T05:39:30.370Z,10.63
2019-02-09T05:40:29.150Z,10.63
2019-02-09T05:41:27.684Z,10.61
2019-02-09T05:42:26.335Z,10.76
2019-02-09T05:43:25.018Z,10.68
2019-02-09T05:44:23.587Z,10.68
2019-02-09T05:45:22.393Z,10.71
2019-02-09T05:46:21.029Z,10.63
2019-02-09T05:47:19.593Z,10.56
2019-02-09T05:48:18.137Z,10.61
2019-02-09T05:49:16.723Z,10.56
2019-02-09T05:50:15.246Z,10.53
2019-02-09T05:51:13.776Z,10.59
2019-02-09T05:52:12.327Z,10.64
2019-02-09T05:53:10.891Z,10.68
2019-02-09T05:54:09.452Z,10.6
2019-02-09T05:55:08.143Z,10.64
2019-02-09T05:56:06.991Z,10.64
2019-02-09T05:57:05.538Z,10.67
2019-02-09T05:58:04.304Z,10.7
2019-02-09T05:59:02.847Z,10.63
2019-02-09T06:00:01.437Z,10.59
2019-02-09T06:01:00.076Z,10.66
2019-02-09T06:01:58.771Z,10.63
2019-02-09T06:02:57.374Z,10.67
2019-02-09T06:03:55.931Z,10.68
2019-02-09T06:04:54.577Z,10.64
2019-02-09T06:05:53.105Z,10.73
2019-02-09T06:06:51.662Z,10.67
2019-02-09T06:07:50.305Z,10.59
2019-02-09T06:08:49.108Z,10.59
2019-02-09T06:09:47.692Z,10.53
2019-02-09T06:10:46.352Z,10.6
2019-02-09T06:11:44.978Z,10.59
2019-02-09T06:12:43.752Z,10.63
2019-02-09T06:13:42.387Z,10.64
2019-02-09T06:14:40.966Z,10.61
2019-02-09T06:15:39.789Z,10.55
2019-02-09T06:16:38.465Z,10.61
2019-02-09T06:17:37.206Z,10.48
2019-02-09T06:18:35.751Z,10.53
2019-02-09T06:19:34.367Z,10.51
2019-02-09T06:20:32.961Z,10.53
2019-02-09T06:21:32.482Z,10.55
2019-02-09T06:22:31.253Z,10.55
2019-02-09T06:23:29.853Z,10.52
2019-02-09T06:24:28.435Z,10.52
2019-02-09T06:25:26.969Z,10.61
2019-02-09T06:26:26.071Z,10.53
2019-02-09T06:27:24.143Z,10.53
2019-02-09T06:28:23.005Z,10.55
2019-02-09T06:29:21.549Z,10.6
2019-02-09T06:30:20.143Z,10.38
2019-02-09T06:31:18.713Z,10.33
2019-02-09T06:32:17.247Z,10.3
2019-02-09T06:33:15.796Z,10.3
2019-02-09T06:34:14.381Z,10.2
2019-02-09T06:35:12.943Z,10.17
2019-02-09T06:36:11.503Z,10.25
2019-02-09T06:37:10.040Z,10.29
2019-02-09T06:38:08.572Z,10.3
2019-02-09T06:39:07.174Z,10.38
2019-02-09T06:40:05.754Z,10.4
2019-02-09T06:41:04.389Z,10.36
2019-02-09T06:42:03.000Z,10.44
2019-02-09T06:43:01.536Z,10.34
2019-02-09T06:44:00.136Z,10.32
2019-02-09T06:44:58.790Z,10.42
2019-02-09T06:45:57.332Z,10.4
2019-02-09T06:46:55.879Z,10.42
2019-02-09T06:47:54.477Z,10.45
2019-02-09T06:48:53.151Z,10.55
2019-02-09T06:49:51.712Z,10.68
2019-02-09T06:50:50.470Z,10.59
2019-02-09T06:51:49.068Z,10.64
2019-02-09T06:52:47.609Z,10.61
2019-02-09T06:53:46.222Z,10.61
2019-02-09T06:54:44.899Z,10.67
2019-02-09T06:55:43.451Z,10.67
2019-02-09T06:56:42.367Z,10.59
2019-02-09T06:57:40.912Z,10.66
2019-02-09T06:58:39.444Z,10.6
2019-02-09T06:59:38.175Z,10.71
2019-02-09T07:00:37.002Z,10.63
2019-02-09T07:01:35.634Z,10.55
2019-02-09T07:02:34.308Z,10.6
2019-02-09T07:03:33.094Z,10.63
2019-02-09T07:04:31.674Z,10.61
2019-02-09T07:05:30.706Z,10.56
2019-02-09T07:06:29.274Z,10.56
2019-02-09T07:07:27.841Z,10.59
2019-02-09T07:08:26.438Z,10.52
2019-02-09T07:09:25.049Z,10.66
2019-02-09T07:10:23.661Z,10.63
2019-02-09T07:11:22.353Z,10.59
2019-02-09T07:12:21.051Z,10.71
2019-02-09T07:13:19.606Z,10.63
2019-02-09T07:14:18.181Z,10.71
2019-02-09T07:15:17.043Z,10.63
2019-02-09T07:16:15.642Z,10.63
2019-02-09T07:17:14.186Z,10.68
2019-02-09T07:18:12.731Z,10.64
2019-02-09T07:19:11.306Z,10.63
2019-02-09T07:20:09.862Z,10.6
2019-02-09T07:21:08.502Z,10.61
2019-02-09T07:22:07.101Z,10.56
2019-02-09T07:23:05.668Z,10.47
2019-02-09T07:24:04.471Z,10.53
2019-02-09T07:25:03.120Z,10.53
2019-02-09T07:26:01.671Z,10.53
2019-02-09T07:27:00.226Z,10.48
2019-02-09T07:27:58.784Z,10.6
2019-02-09T07:28:57.321Z,10.52
2019-02-09T07:29:55.887Z,10.51
2019-02-09T07:30:54.420Z,10.51
2019-02-09T07:31:56.445Z,10.63
2019-02-09T07:32:51.887Z,10.68
2019-02-09T07:33:50.651Z,10.7
2019-02-09T07:34:49.227Z,10.63
2019-02-09T07:35:47.759Z,10.56
2019-02-09T07:36:46.328Z,10.63
2019-02-09T07:37:44.971Z,10.74
2019-02-09T07:38:43.520Z,10.68
2019-02-09T07:39:42.105Z,10.74
2019-02-09T07:40:40.880Z,10.84
2019-02-09T07:41:39.417Z,10.78
2019-02-09T07:42:38.037Z,10.81
2019-02-09T07:43:36.655Z,10.78
2019-02-09T07:44:35.252Z,10.84
2019-02-09T07:45:33.808Z,10.85
2019-02-09T07:46:32.456Z,10.81
2019-02-09T07:47:31.116Z,10.81
2019-02-09T07:48:29.694Z,10.76
2019-02-09T07:49:28.238Z,10.88
2019-02-09T07:50:26.993Z,10.85
2019-02-09T07:51:25.593Z,10.92
2019-02-09T07:52:24.209Z,10.89
2019-02-09T07:55:04.359Z,10.82
2019-02-09T07:56:02.974Z,10.84
2019-02-09T07:57:01.595Z,10.76
2019-02-09T08:00:40.361Z,10.81
2019-02-09T08:01:38.966Z,10.76
2019-02-09T08:02:37.508Z,10.86
2019-02-09T08:03:36.180Z,10.85
2019-02-09T08:04:34.858Z,10.88
2019-02-09T08:05:33.657Z,10.88
2019-02-09T08:06:32.223Z,10.86
2019-02-09T08:07:30.790Z,10.88
2019-02-09T08:08:29.375Z,10.92
2019-02-09T08:09:27.928Z,10.96
2019-02-09T08:10:26.566Z,11.04
2019-02-09T08:11:25.253Z,11.03
2019-02-09T08:12:23.797Z,11.09
2019-02-09T08:13:22.620Z,11.21
2019-02-09T08:14:21.252Z,11.11
2019-02-09T08:15:19.907Z,11.09
2019-02-09T08:16:18.599Z,11.19
2019-02-09T08:17:17.128Z,11.21
2019-02-09T08:18:15.684Z,11.28
2019-02-09T08:19:14.293Z,11.35
2019-02-09T08:20:13.068Z,11.27
2019-02-09T08:21:11.698Z,11.28
2019-02-09T08:22:10.294Z,11.33
2019-02-09T08:23:08.899Z,11.35
2019-02-09T08:24:07.504Z,11.35
2019-02-09T08:25:06.080Z,11.52
2019-02-09T08:26:04.729Z,11.37
2019-02-09T08:27:03.296Z,11.44
2019-02-09T08:28:04.057Z,11.39
2019-02-09T08:29:02.796Z,11.36
2019-02-09T08:30:01.375Z,11.35
2019-02-09T08:30:59.914Z,11.27
2019-02-09T08:31:58.526Z,11.42
2019-02-09T08:32:57.114Z,11.28
2019-02-09T08:33:55.659Z,11.35
2019-02-09T08:34:54.207Z,11.29
2019-02-09T08:35:52.730Z,11.27
2019-02-09T08:36:51.329Z,11.4
2019-02-09T08:37:49.962Z,11.33
2019-02-09T08:38:48.649Z,11.25
2019-02-09T08:39:47.237Z,11.29
2019-02-09T08:41:31.724Z,11.46
2019-02-09T08:42:30.332Z,11.57
2019-02-09T08:43:28.995Z,11.57
2019-02-09T08:44:27.572Z,11.73
2019-02-09T08:46:27.170Z,11.73
2019-02-09T08:47:25.719Z,11.73
2019-02-09T08:48:24.322Z,11.75
2019-02-09T08:49:22.983Z,11.61
2019-02-09T08:50:21.578Z,11.62
2019-02-09T08:51:20.140Z,11.61
2019-02-09T08:52:18.697Z,11.65
2019-02-09T08:53:17.321Z,11.61
2019-02-09T08:54:15.805Z,11.43
2019-02-09T08:55:14.427Z,11.43
2019-02-09T08:56:12.976Z,11.43
2019-02-09T08:57:11.535Z,11.46
2019-02-09T08:58:10.065Z,11.46
2019-02-09T08:59:08.737Z,11.43
2019-02-09T09:00:07.373Z,11.4
2019-02-09T09:01:06.049Z,11.36
2019-02-09T09:02:04.788Z,11.35
2019-02-09T09:03:03.372Z,11.33
2019-02-09T09:04:01.924Z,11.19
2019-02-09T09:05:00.464Z,11.29
2019-02-09T09:05:59.046Z,11.24
2019-02-09T09:06:57.622Z,11.29
2019-02-09T09:07:56.317Z,11.29
2019-02-09T09:08:55.093Z,11.18
2019-02-09T09:09:53.700Z,11.27
2019-02-09T09:10:52.433Z,11.27
2019-02-09T09:11:50.970Z,11.29
2019-02-09T09:12:49.539Z,11.28
2019-02-09T09:13:48.087Z,11.36
2019-02-09T09:14:46.804Z,11.33
2019-02-09T09:15:45.353Z,11.32
2019-02-09T09:16:43.936Z,11.27
2019-02-09T09:17:42.719Z,11.42
2019-02-09T09:18:41.267Z,11.32
2019-02-09T09:19:39.835Z,11.42
2019-02-09T09:20:38.543Z,11.44
2019-02-09T09:21:37.179Z,11.47
2019-02-09T09:22:35.717Z,11.44
2019-02-09T09:23:34.311Z,11.4
2019-02-09T09:24:32.943Z,11.33
2019-02-09T09:25:31.509Z,11.33
2019-02-09T09:26:30.033Z,11.39
2019-02-09T09:27:28.946Z,11.4
2019-02-09T09:28:27.518Z,11.52
2019-02-09T09:29:26.152Z,11.44
2019-02-09T09:30:24.808Z,11.46
2019-02-09T09:31:23.393Z,11.54
2019-02-09T09:32:28.454Z,11.47
2019-02-09T09:33:20.732Z,11.47
2019-02-09T09:34:19.762Z,11.61
2019-02-09T09:35:18.329Z,11.6
2019-02-09T09:36:16.926Z,11.57
2019-02-09T09:37:15.539Z,11.54
2019-02-09T09:38:14.243Z,11.51
2019-02-09T09:39:12.846Z,11.54
2019-02-09T09:40:11.522Z,11.44
2019-02-09T09:41:10.218Z,11.6
2019-02-09T09:42:08.926Z,11.73
2019-02-09T09:43:07.473Z,11.54
2019-02-09T09:44:06.014Z,11.51
2019-02-09T09:45:04.828Z,11.52
2019-02-09T09:46:03.431Z,11.46
2019-02-09T09:47:01.974Z,11.51
2019-02-09T09:48:00.785Z,11.55
2019-02-09T09:48:59.375Z,11.49
2019-02-09T09:49:57.911Z,11.46
2019-02-09T09:50:56.559Z,11.29
2019-02-09T09:51:55.108Z,11.33
2019-02-09T09:52:53.714Z,11.58
2019-02-09T09:53:52.275Z,11.58
2019-02-09T09:54:51.011Z,11.51
2019-02-09T09:55:49.601Z,11.44
2019-02-09T09:56:48.162Z,11.64
2019-02-09T09:57:46.997Z,11.78
2019-02-09T09:58:45.579Z,11.69
2019-02-09T09:59:44.150Z,11.69
2019-02-09T10:00:42.724Z,11.78
2019-02-09T10:03:34.487Z,11.69
2019-02-09T10:04:33.037Z,11.69
2019-02-09T10:05:31.563Z,11.62
2019-02-09T10:06:30.268Z,11.72
2019-02-09T10:07:28.898Z,11.69
2019-02-09T10:08:27.536Z,11.55
2019-02-09T10:09:26.232Z,11.39
2019-02-09T10:10:24.966Z,11.44
2019-02-09T10:11:23.498Z,11.54
2019-02-09T10:12:22.030Z,11.54
2019-02-09T10:13:20.645Z,11.6
2019-02-09T10:14:19.180Z,11.69
2019-02-09T10:15:17.746Z,11.58
2019-02-09T10:16:16.381Z,11.62
2019-02-09T10:17:15.035Z,11.69
2019-02-09T10:18:13.597Z,11.6
2019-02-09T10:19:12.155Z,11.64
2019-02-09T10:20:10.926Z,11.65
2019-02-09T10:31:59.528Z,11.57
2019-02-09T10:34:39.897Z,11.57
2019-02-09T10:35:38.565Z,11.54
2019-02-09T10:36:37.189Z,11.57
2019-02-09T10:37:35.724Z,11.54
2019-02-09T10:38:34.330Z,11.57
2019-02-09T10:39:32.872Z,11.67
2019-02-09T10:40:31.424Z,11.69
2019-02-09T10:41:29.962Z,11.65
2019-02-09T10:42:28.662Z,11.73
2019-02-09T10:43:27.321Z,11.79
2019-02-09T10:44:25.868Z,11.79
2019-02-09T10:45:24.616Z,11.78
2019-02-09T10:46:23.300Z,11.78
2019-02-09T10:47:21.989Z,11.95
2019-02-09T10:48:20.557Z,11.99
2019-02-09T10:49:19.095Z,12.02
2019-02-09T10:52:58.036Z,11.98
2019-02-09T10:53:56.668Z,12.01
2019-02-09T10:54:55.345Z,12.12
2019-02-09T10:55:53.989Z,12.12
2019-02-09T10:56:52.691Z,12.17
2019-02-09T10:57:51.349Z,12.28
2019-02-09T10:58:49.917Z,12.27
2019-02-09T10:59:48.535Z,12.17
2019-02-09T11:00:47.147Z,12.28
2019-02-09T11:01:45.866Z,12.23
2019-02-09T11:02:51.889Z,12.29
2019-02-09T11:03:43.110Z,12.46
2019-02-09T11:04:41.708Z,12.41
2019-02-09T11:05:40.273Z,12.34
2019-02-09T11:06:38.954Z,12.28
2019-02-09T11:07:37.608Z,12.41
2019-02-09T11:08:36.162Z,12.49
2019-02-09T11:09:34.811Z,12.5
2019-02-09T11:10:33.358Z,12.49
2019-02-09T11:11:31.908Z,12.49
2019-02-09T11:12:30.708Z,12.57
2019-02-09T11:13:29.324Z,12.53
2019-02-09T11:14:27.846Z,12.47
2019-02-09T11:15:26.590Z,12.52
2019-02-09T11:16:25.152Z,12.62
2019-02-09T11:17:23.762Z,12.52
2019-02-09T11:18:22.460Z,12.53
2019-02-09T11:19:21.174Z,12.52
2019-02-09T11:20:19.786Z,12.5
2019-02-09T11:21:18.311Z,12.47
2019-02-09T11:22:16.889Z,12.59
2019-02-09T11:23:15.542Z,12.57
2019-02-09T11:24:14.108Z,12.65
2019-02-09T11:25:12.816Z,12.62
2019-02-09T11:26:11.501Z,12.68
2019-02-09T11:27:10.115Z,12.72
2019-02-09T11:28:08.892Z,12.74
2019-02-09T11:29:07.458Z,12.82
2019-02-09T11:30:06.031Z,12.86
2019-02-09T11:31:04.583Z,12.83
2019-02-09T11:32:03.183Z,12.79
2019-02-09T11:33:02.654Z,12.97
2019-02-09T11:34:00.408Z,12.93
2019-02-09T11:34:59.218Z,12.96
2019-02-09T11:35:57.822Z,12.95
2019-02-09T11:36:56.558Z,12.97
2019-02-09T11:37:55.145Z,13.08
2019-02-09T11:38:53.763Z,13.17
2019-02-09T11:39:52.511Z,13.26
2019-02-09T11:43:31.393Z,13.62
2019-02-09T11:44:29.955Z,13.52
2019-02-09T11:45:28.593Z,13.46
2019-02-09T11:46:27.167Z,13.51
2019-02-09T11:47:25.747Z,13.63
2019-02-09T11:48:24.454Z,13.62
2019-02-09T11:51:05.163Z,13.63
2019-02-09T11:52:03.722Z,13.64
2019-02-09T11:53:02.390Z,13.62
2019-02-09T11:54:01.079Z,13.59
2019-02-09T11:54:59.883Z,13.64
2019-02-09T11:55:58.487Z,13.67
2019-02-09T11:56:57.120Z,13.62
2019-02-09T11:57:55.630Z,13.66
2019-02-09T12:13:17.439Z,13.28
2019-02-09T12:16:01.573Z,13.38
2019-02-09T12:17:00.229Z,13.2
2019-02-09T12:17:59.056Z,13.19
2019-02-09T12:20:40.901Z,13.22
2019-02-09T12:21:39.435Z,13.11
2019-02-09T12:22:38.093Z,13.17
2019-02-09T12:23:36.732Z,13.38
2019-02-09T12:24:35.304Z,13.28
2019-02-09T12:25:33.830Z,13.28
2019-02-09T12:26:32.674Z,13.11
2019-02-09T12:27:31.287Z,13.11
2019-02-09T12:28:29.819Z,13.2
2019-02-09T12:29:29.113Z,13.05
2019-02-09T12:32:09.222Z,13.05
2019-02-09T12:51:07.524Z,12.85
2019-02-09T12:52:06.157Z,12.71
2019-02-09T12:53:05.153Z,12.74
2019-02-09T12:54:03.728Z,12.82
2019-02-09T12:55:02.318Z,12.83
2019-02-09T12:56:01.129Z,12.85
2019-02-09T12:56:59.709Z,12.85
2019-02-09T12:57:58.300Z,13
2019-02-09T13:00:22.420Z,13.23
2019-02-09T13:01:21.210Z,13.28
2019-02-09T13:02:19.750Z,13.41
2019-02-09T13:03:18.263Z,13.55
2019-02-09T13:04:16.921Z,13.54
2019-02-09T13:05:15.667Z,13.54
2019-02-09T13:06:14.261Z,13.6
2019-02-09T13:07:13.044Z,13.57
2019-02-09T13:08:11.706Z,13.64
2019-02-09T13:09:10.263Z,13.49
2019-02-09T13:10:08.985Z,13.54
2019-02-09T13:11:07.644Z,13.49
2019-02-09T13:12:06.287Z,13.46
2019-02-09T13:13:04.867Z,13.57
2019-02-09T13:14:03.682Z,13.64
2019-02-09T13:15:02.375Z,13.62
2019-02-09T13:16:01.126Z,13.63
2019-02-09T13:16:59.744Z,13.62
2019-02-09T13:17:58.502Z,13.59
2019-02-09T13:18:57.329Z,13.6
2019-02-09T13:19:56.050Z,13.48
2019-02-09T13:20:54.649Z,13.57
2019-02-09T13:23:35.072Z,13.54
2019-02-09T13:24:33.717Z,13.59
2019-02-09T13:25:32.365Z,13.55
2019-02-09T13:27:54.995Z,13.57
2019-02-09T13:28:53.572Z,13.54
2019-02-09T13:29:52.141Z,13.55
2019-02-09T13:30:50.718Z,13.44
2019-02-09T13:31:49.309Z,13.6
2019-02-09T13:32:47.899Z,13.54
2019-02-09T13:33:46.446Z,13.54
2019-02-09T13:34:45.038Z,13.55
2019-02-09T13:35:43.695Z,13.55
2019-02-09T13:36:42.423Z,13.57
2019-02-09T13:37:41.232Z,13.55
2019-02-09T13:38:39.827Z,13.57
2019-02-09T13:39:38.543Z,13.46
2019-02-09T13:40:37.299Z,13.44
2019-02-09T13:41:35.831Z,13.45
2019-02-09T13:42:34.510Z,13.55
2019-02-09T13:43:33.246Z,13.55
2019-02-09T13:44:31.773Z,13.57
2019-02-09T13:45:30.338Z,13.55
2019-02-09T13:52:17.334Z,13.85
2019-02-09T13:53:16.027Z,13.82